Time;durP1;ratioP1;P1;durP2;ratioP2;P2;SDS_P1;SDS_P2;PMS_P1;PMS_P2;Temp;Humidity;BMP_temperature;BMP_pressure;BME280_temperature;BME280_humidity;BME280_pressure;Samples;Min_cycle;Max_cycle;Signal;HPM_P1;HPM_P2
2023/05/21 00:00:53;;;;;;;9.70;8.80;;;24.80;61.70;;;;;;5069867;28;20535;-67
2023/05/21 00:03:22;;;;;;;8.20;7.60;;;24.80;61.70;;;;;;5070490;28;20449;-66
2023/05/21 00:05:53;;;;;;;9.53;8.73;;;24.80;61.70;;;;;;5064624;28;20456;-66
2023/05/21 00:08:21;;;;;;;9.40;8.40;;;24.80;61.70;;;;;;5068280;28;20511;-67
2023/05/21 00:10:50;;;;;;;8.73;8.00;;;24.80;61.70;;;;;;5050439;28;20493;-68
2023/05/21 00:13:18;;;;;;;9.37;8.40;;;24.80;61.70;;;;;;5068310;28;20452;-70
2023/05/21 00:15:48;;;;;;;9.60;8.80;;;24.80;61.70;;;;;;5052115;28;20466;-66
2023/05/21 00:18:17;;;;;;;9.40;8.60;;;24.80;61.80;;;;;;5045473;28;20480;-66
2023/05/21 00:20:46;;;;;;;9.90;9.00;;;24.80;61.70;;;;;;5063166;28;20450;-66
2023/05/21 00:23:17;;;;;;;8.70;8.00;;;24.80;61.70;;;;;;5069411;28;20465;-66
2023/05/21 00:25:46;;;;;;;8.40;7.70;;;24.80;61.70;;;;;;5051567;28;20864;-66
2023/05/21 00:28:15;;;;;;;9.90;9.10;;;24.80;61.70;;;;;;5056373;28;20454;-66
2023/05/21 00:30:43;;;;;;;9.57;8.73;;;24.80;61.70;;;;;;5045504;28;20453;-66
2023/05/21 00:33:13;;;;;;;10.03;9.17;;;24.80;61.70;;;;;;5055029;28;20504;-66
2023/05/21 00:35:41;;;;;;;9.57;8.77;;;24.80;61.70;;;;;;5074511;28;20452;-66
2023/05/21 00:38:10;;;;;;;8.90;8.10;;;24.80;61.70;;;;;;5071794;28;20476;-68
2023/05/21 00:40:40;;;;;;;9.50;8.70;;;24.80;61.70;;;;;;5071249;28;20462;-67
2023/05/21 00:43:08;;;;;;;8.23;7.63;;;24.80;61.70;;;;;;5055196;28;20940;-66
2023/05/21 00:45:37;;;;;;;10.23;9.37;;;24.80;61.70;;;;;;5073553;28;20452;-66
2023/05/21 00:48:07;;;;;;;8.13;7.43;;;24.80;61.70;;;;;;5072313;28;20993;-66
2023/05/21 00:50:38;;;;;;;9.53;8.63;;;24.80;61.70;;;;;;5055732;28;20535;-67
2023/05/21 00:53:08;;;;;;;9.50;8.67;;;24.70;61.70;;;;;;5051297;28;20472;-66
2023/05/21 00:55:37;;;;;;;9.83;8.97;;;24.70;61.70;;;;;;5064647;28;20458;-66
2023/05/21 00:58:06;;;;;;;9.13;8.40;;;24.70;61.70;;;;;;5076439;28;20546;-66
2023/05/21 01:00:36;;;;;;;9.20;8.40;;;24.70;61.70;;;;;;5073319;28;20450;-66
2023/05/21 01:03:05;;;;;;;9.67;8.83;;;24.70;61.70;;;;;;5073480;28;20477;-66
2023/05/21 01:05:33;;;;;;;9.60;8.80;;;24.70;61.70;;;;;;5074092;28;20490;-66
2023/05/21 01:08:04;;;;;;;8.87;8.07;;;24.70;61.70;;;;;;5065927;28;20441;-66
2023/05/21 01:10:33;;;;;;;8.13;7.43;;;24.70;61.80;;;;;;5073389;28;20438;-71
2023/05/21 01:13:01;;;;;;;9.30;8.50;;;24.70;61.90;;;;;;5065713;28;21054;-67
2023/05/21 01:15:30;;;;;;;9.80;8.90;;;24.70;61.80;;;;;;5073696;28;20450;-68
2023/05/21 01:17:58;;;;;;;8.87;7.97;;;24.70;61.90;;;;;;5069478;28;20453;-66
2023/05/21 01:20:29;;;;;;;9.03;8.30;;;24.70;61.90;;;;;;5073974;28;20997;-66
2023/05/21 01:22:59;;;;;;;10.27;9.37;;;24.70;61.90;;;;;;5053111;28;20473;-66
2023/05/21 01:25:27;;;;;;;8.90;8.13;;;24.70;61.80;;;;;;5051315;28;20962;-66
2023/05/21 01:27:55;;;;;;;8.73;8.03;;;24.70;61.90;;;;;;5072998;28;20565;-67
2023/05/21 01:30:24;;;;;;;8.37;7.67;;;24.70;61.90;;;;;;5073641;28;20504;-66
2023/05/21 01:33:01;;;;;;;9.33;8.63;;;24.70;61.90;;;;;;5049263;28;20953;-66
2023/05/21 01:35:34;;;;;;;9.93;9.13;;;24.70;61.90;;;;;;5073130;28;20481;-67
2023/05/21 01:38:18;;;;;;;9.60;8.80;;;24.70;61.90;;;;;;5047861;28;20809;-66
2023/05/21 01:40:52;;;;;;;9.90;9.07;;;24.70;61.90;;;;;;5058482;28;20436;-66
2023/05/21 01:43:22;;;;;;;10.30;9.40;;;24.70;61.90;;;;;;5065906;28;20477;-67
2023/05/21 01:45:54;;;;;;;10.33;9.33;;;24.70;61.90;;;;;;5052244;28;20923;-66
2023/05/21 01:48:25;;;;;;;8.97;8.27;;;24.60;61.90;;;;;;5064531;28;20484;-66
2023/05/21 01:50:55;;;;;;;10.13;9.30;;;24.70;61.90;;;;;;5073227;28;20444;-66
2023/05/21 01:53:24;;;;;;;9.00;8.20;;;24.70;61.90;;;;;;5058707;28;20447;-66
2023/05/21 01:55:53;;;;;;;9.93;9.07;;;24.60;61.90;;;;;;5072685;28;20519;-66
2023/05/21 01:58:22;;;;;;;9.57;8.73;;;24.60;61.90;;;;;;5060332;28;20555;-67
2023/05/21 02:00:51;;;;;;;9.20;8.50;;;24.60;61.90;;;;;;5054808;28;20459;-66
2023/05/21 02:03:20;;;;;;;9.10;8.30;;;24.60;61.90;;;;;;5071425;28;20477;-68
2023/05/21 02:05:50;;;;;;;10.70;9.80;;;24.60;61.90;;;;;;5076081;28;20458;-66
2023/05/21 02:08:19;;;;;;;10.33;9.47;;;24.60;61.90;;;;;;5059204;28;20456;-67
2023/05/21 02:10:49;;;;;;;10.47;9.50;;;24.60;61.90;;;;;;5048040;28;20451;-66
2023/05/21 02:13:19;;;;;;;9.67;8.70;;;24.60;61.90;;;;;;5053875;28;20484;-68
2023/05/21 02:15:47;;;;;;;8.67;7.97;;;24.60;61.90;;;;;;5071086;28;20522;-66
2023/05/21 02:18:17;;;;;;;9.33;8.53;;;24.60;61.90;;;;;;5064141;28;20458;-66
2023/05/21 02:20:45;;;;;;;9.50;8.60;;;24.60;61.90;;;;;;5064438;28;20450;-66
2023/05/21 02:23:13;;;;;;;9.40;8.60;;;24.60;62.00;;;;;;5074554;28;20471;-66
2023/05/21 02:25:42;;;;;;;10.00;9.10;;;24.60;61.90;;;;;;5064395;28;20459;-66
2023/05/21 02:28:12;;;;;;;8.97;8.20;;;24.60;61.90;;;;;;5052060;28;20464;-66
2023/05/21 02:30:40;;;;;;;8.70;7.90;;;24.60;62.00;;;;;;5042850;28;20496;-67
2023/05/21 02:33:12;;;;;;;9.60;8.80;;;24.60;62.00;;;;;;5050719;28;20467;-66
2023/05/21 02:35:42;;;;;;;10.23;9.43;;;24.60;61.90;;;;;;5051174;28;21809;-69
2023/05/21 02:38:12;;;;;;;9.57;8.87;;;24.60;61.90;;;;;;5050747;28;20451;-66
2023/05/21 02:40:40;;;;;;;9.83;9.03;;;24.60;62.00;;;;;;5034307;28;21032;-67
2023/05/21 02:43:08;;;;;;;9.30;8.50;;;24.60;61.90;;;;;;5051154;28;20511;-66
2023/05/21 02:45:38;;;;;;;8.93;8.23;;;24.60;61.90;;;;;;5052404;28;20579;-67
2023/05/21 02:48:07;;;;;;;8.47;7.77;;;24.60;62.00;;;;;;5039759;28;20509;-67
2023/05/21 02:50:40;;;;;;;8.97;8.17;;;24.60;61.90;;;;;;5025274;28;20534;-68
2023/05/21 02:53:08;;;;;;;9.00;8.30;;;24.60;62.00;;;;;;5033753;28;20456;-66
2023/05/21 02:55:36;;;;;;;8.57;7.77;;;24.60;62.00;;;;;;5030096;28;20488;-66
2023/05/21 02:58:05;;;;;;;8.80;8.07;;;24.60;62.00;;;;;;5048106;28;20962;-66
2023/05/21 03:00:33;;;;;;;8.97;8.20;;;24.60;62.00;;;;;;5051016;28;20453;-67
2023/05/21 03:03:03;;;;;;;8.83;8.10;;;24.60;62.00;;;;;;5033848;28;20558;-66
2023/05/21 03:05:32;;;;;;;9.67;8.87;;;24.60;62.00;;;;;;5033440;28;21010;-66
2023/05/21 03:08:00;;;;;;;10.07;9.20;;;24.60;62.00;;;;;;5050378;28;20497;-67
2023/05/21 03:10:28;;;;;;;9.80;9.00;;;24.60;62.00;;;;;;5033617;28;20465;-66
2023/05/21 03:12:57;;;;;;;8.13;7.43;;;24.50;62.00;;;;;;5050827;28;20450;-66
2023/05/21 03:15:32;;;;;;;9.50;8.60;;;24.50;62.00;;;;;;5018341;28;20472;-67
2023/05/21 03:18:00;;;;;;;9.00;8.20;;;24.50;62.00;;;;;;5033836;28;20566;-67
2023/05/21 03:20:30;;;;;;;10.47;9.57;;;24.50;62.00;;;;;;5033344;28;20484;-66
2023/05/21 03:22:59;;;;;;;8.83;8.13;;;24.50;62.00;;;;;;5038944;28;20475;-67
2023/05/21 03:25:27;;;;;;;9.93;9.03;;;24.50;62.00;;;;;;5044495;28;20470;-66
2023/05/21 03:27:55;;;;;;;9.23;8.43;;;24.50;62.00;;;;;;5050322;28;20483;-67
2023/05/21 03:30:50;;;;;;;9.37;8.67;;;24.50;62.00;;;;;;5067020;28;20538;-67
2023/05/21 03:33:37;;;;;;;9.90;8.90;;;24.50;62.00;;;;;;5079818;28;20439;-66
2023/05/21 03:36:19;;;;;;;9.73;8.93;;;24.50;62.00;;;;;;5071279;28;20458;-67
2023/05/21 03:38:48;;;;;;;9.57;8.77;;;24.50;62.10;;;;;;5062413;28;20455;-66
2023/05/21 03:41:16;;;;;;;8.93;8.13;;;24.50;62.10;;;;;;5057978;28;20451;-66
2023/05/21 03:43:48;;;;;;;10.83;9.87;;;24.50;62.10;;;;;;5060568;28;20473;-67
2023/05/21 03:46:17;;;;;;;11.23;8.60;;;24.50;62.00;;;;;;5058467;28;20498;-66
2023/05/21 03:49:18;;;;;;;10.60;9.70;;;24.50;62.10;;;;;;5057449;28;20534;-66
2023/05/21 03:51:50;;;;;;;9.63;8.73;;;24.50;62.10;;;;;;5052574;28;20478;-66
2023/05/21 03:54:20;;;;;;;8.63;7.93;;;24.50;62.10;;;;;;5053355;28;20469;-69
2023/05/21 03:56:50;;;;;;;9.60;8.80;;;24.50;62.10;;;;;;5052751;28;20555;-67
2023/05/21 03:59:19;;;;;;;10.10;9.30;;;24.50;62.10;;;;;;5056850;28;20457;-66
2023/05/21 04:01:48;;;;;;;9.70;8.80;;;24.40;62.10;;;;;;5052881;28;20465;-66
2023/05/21 04:04:17;;;;;;;9.67;8.77;;;24.50;62.10;;;;;;5066658;28;20978;-66
2023/05/21 04:06:47;;;;;;;9.33;8.60;;;24.40;62.10;;;;;;5051733;28;20465;-66
2023/05/21 04:09:16;;;;;;;8.70;8.00;;;24.50;62.10;;;;;;5052913;28;20464;-66
2023/05/21 04:11:45;;;;;;;9.87;9.07;;;24.40;62.10;;;;;;5050933;28;20957;-66
2023/05/21 04:14:13;;;;;;;10.00;9.30;;;24.40;62.10;;;;;;5062734;28;20469;-66
2023/05/21 04:16:43;;;;;;;10.07;9.17;;;24.40;62.10;;;;;;5057988;28;20464;-68
2023/05/21 04:19:11;;;;;;;9.53;8.73;;;24.40;62.10;;;;;;5067518;28;20460;-66
2023/05/21 04:21:40;;;;;;;8.97;8.23;;;24.40;62.10;;;;;;5052426;28;20877;-67
2023/05/21 04:24:09;;;;;;;11.23;10.23;;;24.40;62.10;;;;;;5052768;28;20505;-66
2023/05/21 04:26:50;;;;;;;8.97;8.23;;;24.50;62.10;;;;;;5052021;28;20848;-66
2023/05/21 04:29:20;;;;;;;9.40;8.60;;;24.40;62.10;;;;;;5052139;28;20461;-66
2023/05/21 04:31:49;;;;;;;10.10;9.20;;;24.40;62.10;;;;;;5053951;28;20522;-70
2023/05/21 04:34:18;;;;;;;9.70;8.90;;;24.40;62.10;;;;;;5051604;28;20466;-67
2023/05/21 04:36:47;;;;;;;9.70;8.90;;;24.40;62.10;;;;;;5069860;28;20470;-66
2023/05/21 04:39:15;;;;;;;10.67;9.63;;;24.40;62.10;;;;;;5056106;28;20476;-67
2023/05/21 04:41:44;;;;;;;9.50;8.70;;;24.40;62.10;;;;;;5069759;28;20461;-66
2023/05/21 04:44:14;;;;;;;10.30;9.40;;;24.40;62.00;;;;;;5068594;28;20478;-66
2023/05/21 04:46:45;;;;;;;10.37;9.33;;;24.40;62.10;;;;;;5058010;28;20465;-65
2023/05/21 04:49:14;;;;;;;9.37;8.57;;;24.40;62.10;;;;;;5052412;28;20469;-65
2023/05/21 04:51:42;;;;;;;9.33;8.53;;;24.50;62.10;;;;;;5063089;28;20544;-66
2023/05/21 04:54:10;;;;;;;9.90;9.10;;;24.50;62.10;;;;;;5069797;28;20461;-66
2023/05/21 04:56:38;;;;;;;9.13;8.30;;;24.40;62.10;;;;;;5051993;28;20475;-66
2023/05/21 04:59:07;;;;;;;9.57;8.70;;;24.40;62.10;;;;;;5069486;28;20453;-66
2023/05/21 05:01:37;;;;;;;9.70;8.90;;;24.40;62.10;;;;;;5069155;28;20816;-66
2023/05/21 05:04:05;;;;;;;9.20;8.50;;;24.40;62.10;;;;;;5049883;28;20491;-66
2023/05/21 05:06:34;;;;;;;9.87;9.00;;;24.40;62.10;;;;;;5052215;28;20470;-66
2023/05/21 05:09:03;;;;;;;10.00;9.10;;;24.40;62.10;;;;;;5046824;28;20457;-66
2023/05/21 05:11:31;;;;;;;9.40;8.53;;;24.40;62.10;;;;;;5044276;28;20454;-66
2023/05/21 05:13:59;;;;;;;9.33;8.57;;;24.40;62.10;;;;;;5065820;28;20487;-68
2023/05/21 05:16:28;;;;;;;10.27;9.43;;;24.50;62.00;;;;;;5058872;28;20457;-66
2023/05/21 05:18:58;;;;;;;9.50;8.70;;;24.40;62.00;;;;;;5052991;28;21210;-67
2023/05/21 05:21:26;;;;;;;9.53;8.67;;;24.40;62.10;;;;;;5078183;28;20492;-66
2023/05/21 05:23:55;;;;;;;10.70;9.70;;;24.50;62.00;;;;;;5052758;28;20481;-66
2023/05/21 05:26:27;;;;;;;10.27;9.47;;;24.50;62.00;;;;;;5055834;28;20493;-67
2023/05/21 05:28:56;;;;;;;9.10;8.37;;;24.50;61.90;;;;;;5058969;28;20457;-65
2023/05/21 05:31:24;;;;;;;9.40;8.60;;;24.50;61.90;;;;;;5044940;28;21067;-66
2023/05/21 05:33:54;;;;;;;8.90;8.20;;;24.50;61.90;;;;;;5042775;28;20565;-67
2023/05/21 05:36:26;;;;;;;9.93;9.13;;;24.50;61.90;;;;;;5050182;28;20462;-67
2023/05/21 05:38:54;;;;;;;10.57;9.67;;;24.50;61.80;;;;;;5045362;28;20460;-67
2023/05/21 05:41:23;;;;;;;9.33;8.63;;;24.50;61.80;;;;;;5042727;28;20487;-65
2023/05/21 05:43:51;;;;;;;9.83;9.03;;;24.50;62.20;;;;;;5054486;28;20455;-65
2023/05/21 05:46:21;;;;;;;10.33;9.43;;;24.50;62.30;;;;;;5048011;28;20478;-65
2023/05/21 05:48:51;;;;;;;10.60;9.70;;;24.50;62.20;;;;;;5058222;28;20523;-67
2023/05/21 05:51:19;;;;;;;13.10;10.50;;;24.60;62.30;;;;;;5054790;28;20461;-70
2023/05/21 05:53:49;;;;;;;11.43;10.43;;;24.60;62.20;;;;;;5052999;28;20827;-68
2023/05/21 05:56:18;;;;;;;10.50;9.50;;;24.60;62.00;;;;;;5079137;28;20464;-68
2023/05/21 05:58:46;;;;;;;11.00;9.50;;;24.60;61.90;;;;;;5054154;28;20450;-67
2023/05/21 06:01:16;;;;;;;11.93;10.93;;;24.60;61.90;;;;;;5052890;28;20479;-67
2023/05/21 06:03:45;;;;;;;10.47;9.50;;;24.60;61.90;;;;;;5046230;28;20459;-68
2023/05/21 06:06:18;;;;;;;11.80;10.70;;;24.60;61.80;;;;;;5046918;28;20465;-67
2023/05/21 06:08:48;;;;;;;11.20;10.20;;;24.70;61.80;;;;;;5045785;28;21021;-67
2023/05/21 06:11:17;;;;;;;10.17;9.27;;;24.70;61.70;;;;;;5053353;28;20466;-66
2023/05/21 06:13:46;;;;;;;8.90;8.10;;;24.70;61.70;;;;;;5057516;28;20465;-69
2023/05/21 06:16:17;;;;;;;10.77;9.63;;;24.70;61.70;;;;;;5046632;28;20488;-67
2023/05/21 06:18:45;;;;;;;11.80;10.60;;;24.70;61.70;;;;;;5063288;28;20964;-67
2023/05/21 06:21:13;;;;;;;10.20;9.30;;;24.70;61.50;;;;;;5047958;28;20518;-67
2023/05/21 06:23:41;;;;;;;11.07;9.60;;;24.70;61.50;;;;;;5057016;28;21175;-68
2023/05/21 06:26:11;;;;;;;9.57;8.50;;;24.70;61.50;;;;;;5050437;28;20500;-68
2023/05/21 06:28:40;;;;;;;9.43;8.67;;;24.70;61.50;;;;;;5025541;28;20464;-70
2023/05/21 06:31:10;;;;;;;10.63;9.60;;;24.80;61.50;;;;;;5026616;28;20458;-69
2023/05/21 06:33:39;;;;;;;9.53;8.70;;;24.80;61.40;;;;;;5026282;28;20526;-67
2023/05/21 06:36:08;;;;;;;9.67;8.80;;;24.80;61.40;;;;;;5046131;28;20560;-68
2023/05/21 06:38:36;;;;;;;9.80;9.00;;;24.80;61.40;;;;;;5037493;28;20448;-66
2023/05/21 06:41:04;;;;;;;10.47;9.57;;;24.80;61.40;;;;;;5051644;28;20447;-66
2023/05/21 06:43:54;;;;;;;9.57;8.67;;;24.80;61.40;;;;;;5038397;28;20545;-67
2023/05/21 06:46:58;;;;;;;9.00;8.20;;;24.80;61.40;;;;;;5004852;28;20464;-68
2023/05/21 06:49:26;;;;;;;9.10;8.30;;;24.80;61.40;;;;;;5012598;28;20888;-68
2023/05/21 06:51:54;;;;;;;9.30;8.50;;;24.80;61.40;;;;;;5020591;28;20473;-66
2023/05/21 06:54:23;;;;;;;9.63;8.63;;;24.80;61.30;;;;;;5040880;28;20466;-66
2023/05/21 06:56:53;;;;;;;9.27;8.47;;;24.80;61.30;;;;;;5041039;28;20454;-67
2023/05/21 06:59:23;;;;;;;9.23;8.53;;;24.80;61.30;;;;;;5038978;28;20471;-66
2023/05/21 07:01:51;;;;;;;9.20;8.40;;;24.80;61.30;;;;;;5041302;28;20469;-68
2023/05/21 07:04:20;;;;;;;9.77;8.97;;;24.90;61.30;;;;;;5021741;28;20508;-68
2023/05/21 07:06:48;;;;;;;8.90;8.20;;;24.90;61.30;;;;;;5038630;28;20477;-67
2023/05/21 07:09:17;;;;;;;9.63;8.83;;;24.90;61.30;;;;;;5036162;28;20526;-67
2023/05/21 07:11:46;;;;;;;9.27;8.37;;;24.80;61.30;;;;;;5038445;28;20470;-66
2023/05/21 07:14:16;;;;;;;9.70;8.90;;;24.80;61.30;;;;;;5027578;28;20466;-66
2023/05/21 07:16:46;;;;;;;9.10;8.40;;;24.90;61.30;;;;;;5049589;28;20448;-66
2023/05/21 07:19:15;;;;;;;9.57;8.77;;;24.80;61.40;;;;;;5038099;28;20976;-66
2023/05/21 07:21:44;;;;;;;9.53;8.67;;;24.90;61.40;;;;;;5036023;28;20519;-67
2023/05/21 07:24:13;;;;;;;7.93;7.23;;;24.90;61.30;;;;;;5036290;28;20453;-66
2023/05/21 07:26:41;;;;;;;8.90;8.20;;;24.90;61.20;;;;;;5039349;28;20585;-67
2023/05/21 07:29:10;;;;;;;9.77;8.77;;;24.90;61.20;;;;;;5050535;28;20469;-67
2023/05/21 07:31:39;;;;;;;9.27;8.47;;;24.90;61.20;;;;;;5049748;28;20450;-67
2023/05/21 07:34:09;;;;;;;9.10;8.30;;;24.90;61.20;;;;;;5049859;28;20455;-67
2023/05/21 07:36:39;;;;;;;9.10;8.17;;;24.90;61.20;;;;;;5039798;28;20463;-68
2023/05/21 07:39:07;;;;;;;9.20;8.50;;;25.00;61.20;;;;;;5054461;28;20455;-68
2023/05/21 07:41:37;;;;;;;9.10;8.37;;;25.00;61.20;;;;;;5050412;28;20527;-67
2023/05/21 07:44:08;;;;;;;8.47;7.80;;;25.00;61.20;;;;;;5050477;28;20558;-66
2023/05/21 07:46:40;;;;;;;8.23;7.53;;;25.00;61.20;;;;;;5054917;28;20506;-69
2023/05/21 07:49:15;;;;;;;8.67;7.97;;;25.00;61.20;;;;;;5055448;28;20470;-67
2023/05/21 07:51:45;;;;;;;8.57;7.90;;;25.00;61.20;;;;;;5047387;28;20466;-67
2023/05/21 07:54:13;;;;;;;8.70;8.00;;;25.00;61.20;;;;;;5040893;28;20460;-67
2023/05/21 07:56:41;;;;;;;7.90;7.30;;;25.00;61.20;;;;;;5052620;28;20505;-67
2023/05/21 07:59:17;;;;;;;8.07;7.33;;;25.00;61.10;;;;;;5052084;28;20738;-67
2023/05/21 08:01:45;;;;;;;8.67;7.90;;;25.00;61.20;;;;;;5044923;28;20549;-67
2023/05/21 08:04:14;;;;;;;8.87;8.17;;;25.00;61.20;;;;;;5041403;28;20453;-66
2023/05/21 08:06:43;;;;;;;7.90;7.30;;;25.00;61.10;;;;;;5050038;28;20520;-66
2023/05/21 08:09:11;;;;;;;9.00;8.20;;;25.00;61.10;;;;;;5051172;28;20450;-66
2023/05/21 08:11:40;;;;;;;7.40;6.87;;;25.00;61.10;;;;;;5047917;28;20516;-67
2023/05/21 08:14:09;;;;;;;7.47;6.87;;;25.00;61.10;;;;;;5043459;28;20505;-68
2023/05/21 08:16:37;;;;;;;8.40;7.70;;;25.00;61.10;;;;;;5068819;28;20888;-67
2023/05/21 08:19:06;;;;;;;7.60;7.00;;;25.00;61.10;;;;;;5052034;28;20461;-67
2023/05/21 08:21:35;;;;;;;7.60;7.00;;;25.00;61.10;;;;;;5068018;28;20460;-68
2023/05/21 08:24:04;;;;;;;8.57;7.87;;;25.00;61.10;;;;;;5052743;28;20459;-67
2023/05/21 08:26:32;;;;;;;8.80;8.10;;;25.00;61.10;;;;;;5070211;28;20534;-68
2023/05/21 08:29:01;;;;;;;7.53;7.03;;;25.10;61.00;;;;;;5051930;28;20521;-67
2023/05/21 08:31:29;;;;;;;8.47;7.77;;;25.10;61.00;;;;;;5051414;28;20472;-66
2023/05/21 08:33:58;;;;;;;7.83;7.23;;;25.10;61.00;;;;;;5060072;28;20480;-67
2023/05/21 08:36:41;;;;;;;7.40;6.80;;;25.10;61.00;;;;;;5053040;28;20469;-68
2023/05/21 08:39:24;;;;;;;8.17;7.57;;;25.10;61.00;;;;;;5049744;28;20475;-67
2023/05/21 08:41:57;;;;;;;8.17;7.47;;;25.10;61.00;;;;;;5052532;28;20551;-67
2023/05/21 08:44:28;;;;;;;8.23;7.43;;;25.10;61.00;;;;;;5041313;28;20524;-67
2023/05/21 08:46:59;;;;;;;7.10;6.57;;;25.10;61.00;;;;;;5066350;28;20468;-67
2023/05/21 08:49:30;;;;;;;8.37;7.70;;;25.10;61.00;;;;;;5040181;28;20547;-66
2023/05/21 08:52:01;;;;;;;6.37;5.83;;;25.10;61.00;;;;;;5050805;28;20967;-66
2023/05/21 08:54:29;;;;;;;7.90;7.30;;;25.10;61.00;;;;;;5061917;28;20517;-67
2023/05/21 08:56:59;;;;;;;7.70;7.10;;;25.10;61.10;;;;;;5060162;28;20466;-67
2023/05/21 08:59:27;;;;;;;7.40;6.77;;;25.10;61.10;;;;;;5073761;28;20520;-66
2023/05/21 09:01:56;;;;;;;7.40;6.73;;;25.10;61.10;;;;;;5044536;28;20483;-67
2023/05/21 09:04:32;;;;;;;7.50;6.93;;;25.10;61.10;;;;;;5056041;28;20456;-66
2023/05/21 09:07:02;;;;;;;7.67;7.07;;;25.10;61.10;;;;;;5053589;28;20483;-67
2023/05/21 09:10:08;;;;;;;7.50;6.90;;;25.10;61.10;;;;;;5048264;28;20456;-67
2023/05/21 09:12:37;;;;;;;7.20;6.67;;;25.10;61.00;;;;;;5048208;28;20566;-66
2023/05/21 09:15:06;;;;;;;7.03;6.53;;;25.10;61.00;;;;;;5049633;28;20519;-67
2023/05/21 09:17:37;;;;;;;6.60;6.10;;;25.10;61.00;;;;;;5055450;28;20880;-67
2023/05/21 09:20:26;;;;;;;8.77;8.07;;;25.10;61.00;;;;;;5074369;28;20952;-67
2023/05/21 09:23:05;;;;;;;7.90;7.30;;;25.10;61.00;;;;;;5062538;28;20476;-66
2023/05/21 09:25:37;;;;;;;6.93;6.40;;;25.10;61.00;;;;;;5073078;28;20451;-67
2023/05/21 09:28:15;;;;;;;7.53;6.93;;;25.10;61.00;;;;;;5055343;28;20450;-67
2023/05/21 09:30:47;;;;;;;7.23;6.63;;;25.20;61.00;;;;;;5073443;28;20485;-66
2023/05/21 09:33:25;;;;;;;7.67;6.87;;;25.20;60.90;;;;;;5054755;28;20457;-66
2023/05/21 09:35:54;;;;;;;7.90;7.30;;;25.20;61.00;;;;;;5066671;28;20489;-67
2023/05/21 09:38:25;;;;;;;7.27;6.57;;;25.20;60.90;;;;;;5055374;28;20962;-67
2023/05/21 09:40:56;;;;;;;7.07;6.57;;;25.20;60.80;;;;;;5071373;28;20457;-68
2023/05/21 09:43:25;;;;;;;7.57;6.93;;;25.20;60.90;;;;;;5051725;28;20461;-67
2023/05/21 09:45:57;;;;;;;6.73;6.20;;;25.20;60.80;;;;;;5044750;28;20461;-67
2023/05/21 09:48:35;;;;;;;6.93;6.33;;;25.20;60.80;;;;;;5072213;28;20533;-67
2023/05/21 09:51:16;;;;;;;7.93;7.33;;;25.20;60.80;;;;;;5052579;28;20456;-67
2023/05/21 09:53:49;;;;;;;7.27;6.67;;;25.20;60.80;;;;;;5067872;28;20511;-66
2023/05/21 09:56:22;;;;;;;7.00;6.50;;;25.30;60.80;;;;;;5069767;28;20843;-66
2023/05/21 09:58:53;;;;;;;6.93;6.43;;;25.30;60.80;;;;;;5072378;28;20450;-66
2023/05/21 10:01:23;;;;;;;7.20;6.60;;;25.30;60.80;;;;;;5064225;28;20446;-66
2023/05/21 10:03:55;;;;;;;8.00;7.40;;;25.30;60.80;;;;;;5068940;28;20458;-66
2023/05/21 10:06:26;;;;;;;7.33;6.60;;;25.30;60.80;;;;;;5065571;28;21023;-68
2023/05/21 10:08:56;;;;;;;7.13;6.23;;;25.30;60.80;;;;;;5073426;28;20483;-66
2023/05/21 10:11:27;;;;;;;6.67;6.17;;;25.30;60.80;;;;;;5072473;28;20490;-66
2023/05/21 10:14:01;;;;;;;6.43;5.93;;;25.30;60.80;;;;;;5071747;28;20440;-66
2023/05/21 10:16:32;;;;;;;6.57;6.10;;;25.30;60.80;;;;;;5064899;28;20462;-68
2023/05/21 10:19:01;;;;;;;7.33;6.70;;;25.30;60.80;;;;;;5070852;28;20975;-66
2023/05/21 10:21:32;;;;;;;6.03;5.53;;;25.30;60.80;;;;;;5071744;28;20472;-67
2023/05/21 10:24:03;;;;;;;6.70;6.20;;;25.30;60.80;;;;;;5072520;28;20514;-67
2023/05/21 10:26:31;;;;;;;6.10;5.60;;;25.30;60.80;;;;;;5073331;28;20492;-67
2023/05/21 10:29:00;;;;;;;6.17;5.77;;;25.30;60.80;;;;;;5071022;28;20490;-68
2023/05/21 10:31:29;;;;;;;6.10;5.70;;;25.30;60.80;;;;;;5061805;28;20477;-66
2023/05/21 10:33:57;;;;;;;5.93;5.53;;;25.30;60.80;;;;;;5046041;28;20873;-66
2023/05/21 10:36:29;;;;;;;6.73;6.23;;;25.30;60.80;;;;;;5067677;28;20951;-67
2023/05/21 10:39:00;;;;;;;6.00;5.60;;;25.30;60.80;;;;;;5068914;28;20536;-67
2023/05/21 10:41:37;;;;;;;6.23;5.63;;;25.30;60.80;;;;;;5053982;28;20457;-66
2023/05/21 10:44:17;;;;;;;6.53;5.93;;;25.30;60.80;;;;;;5070531;28;20438;-69
2023/05/21 10:47:07;;;;;;;6.40;6.00;;;25.30;60.80;;;;;;5072780;28;20474;-66
2023/05/21 10:50:03;;;;;;;6.57;6.17;;;25.30;60.80;;;;;;5065052;28;20491;-68
2023/05/21 10:52:46;;;;;;;6.03;5.43;;;25.30;60.90;;;;;;5067704;28;20461;-66
2023/05/21 10:55:26;;;;;;;7.53;6.93;;;25.30;60.80;;;;;;5071059;28;20505;-67
2023/05/21 10:58:23;;;;;;;5.67;5.27;;;25.30;60.80;;;;;;5074456;28;20458;-67
2023/05/21 11:00:54;;;;;;;6.80;6.20;;;25.30;60.80;;;;;;5069269;28;20592;-66
2023/05/21 11:03:23;;;;;;;5.47;5.07;;;25.30;60.80;;;;;;5063232;28;20465;-67
2023/05/21 11:05:54;;;;;;;5.97;5.47;;;25.30;60.80;;;;;;5071398;28;20454;-66
2023/05/21 11:08:23;;;;;;;5.83;5.43;;;25.30;60.80;;;;;;5070927;28;20479;-66
2023/05/21 11:10:53;;;;;;;5.80;5.40;;;25.30;60.80;;;;;;5067004;28;20583;-66
2023/05/21 11:13:22;;;;;;;5.83;5.43;;;25.30;60.80;;;;;;5072034;28;21010;-66
2023/05/21 11:16:07;;;;;;;5.83;5.43;;;25.30;60.80;;;;;;5065453;28;20535;-68
2023/05/21 11:19:01;;;;;;;6.00;5.60;;;25.30;60.80;;;;;;5069165;28;20466;-66
2023/05/21 11:21:31;;;;;;;5.70;5.30;;;25.40;60.80;;;;;;5063467;28;20462;-66
2023/05/21 11:24:18;;;;;;;6.57;6.07;;;25.40;60.80;;;;;;5063718;28;20487;-66
2023/05/21 11:27:05;;;;;;;5.93;5.50;;;25.40;60.80;;;;;;5051501;28;20483;-66
2023/05/21 11:29:43;;;;;;;7.00;6.50;;;25.40;60.80;;;;;;5064925;28;20810;-66
2023/05/21 11:32:16;;;;;;;6.33;5.83;;;25.40;60.80;;;;;;5064836;28;20446;-66
2023/05/21 11:34:46;;;;;;;6.50;6.00;;;25.40;60.80;;;;;;5067309;28;20467;-66
2023/05/21 11:37:34;;;;;;;5.53;5.13;;;25.40;60.70;;;;;;5070841;28;20449;-66
2023/05/21 11:40:24;;;;;;;5.73;5.33;;;25.40;60.70;;;;;;5068044;28;20447;-66
2023/05/21 11:42:55;;;;;;;6.77;6.27;;;25.40;60.70;;;;;;5070154;28;20465;-67
2023/05/21 11:45:29;;;;;;;5.47;4.80;;;25.50;60.60;;;;;;5079856;28;20466;-66
2023/05/21 11:47:58;;;;;;;5.70;5.30;;;25.50;60.50;;;;;;5071792;28;20468;-65
2023/05/21 11:50:27;;;;;;;6.00;5.50;;;25.50;60.50;;;;;;5059381;28;20471;-68
2023/05/21 11:52:55;;;;;;;5.70;5.30;;;25.60;60.50;;;;;;5068511;28;20444;-65
2023/05/21 11:55:24;;;;;;;5.70;5.30;;;25.60;60.40;;;;;;5060406;28;21002;-68
2023/05/21 11:57:54;;;;;;;4.93;4.53;;;25.70;60.40;;;;;;5069108;28;20452;-66
2023/05/21 12:00:24;;;;;;;5.23;4.93;;;25.70;60.20;;;;;;5070067;28;20476;-66
2023/05/21 12:02:54;;;;;;;5.47;5.07;;;25.80;60.20;;;;;;5070219;28;20442;-66
2023/05/21 12:05:24;;;;;;;5.80;5.40;;;25.80;60.00;;;;;;5066749;28;20468;-68
2023/05/21 12:07:53;;;;;;;6.50;6.00;;;25.90;59.90;;;;;;5061669;28;20468;-66
2023/05/21 12:10:22;;;;;;;5.90;5.50;;;26.00;59.70;;;;;;5071269;28;20555;-66
2023/05/21 12:12:51;;;;;;;6.50;6.00;;;26.10;59.50;;;;;;5060218;28;20955;-67
2023/05/21 12:15:26;;;;;;;5.33;5.00;;;26.20;59.30;;;;;;5055257;28;20458;-67
2023/05/21 12:17:55;;;;;;;6.40;5.90;;;26.30;59.10;;;;;;5061403;28;20443;-66
2023/05/21 12:20:26;;;;;;;4.90;4.60;;;26.40;58.90;;;;;;5065832;28;20468;-67
2023/05/21 12:22:57;;;;;;;4.90;4.60;;;26.50;58.70;;;;;;5067132;28;20456;-66
2023/05/21 12:25:26;;;;;;;5.50;5.10;;;26.60;58.50;;;;;;5065653;28;20450;-66
2023/05/21 12:27:57;;;;;;;4.93;4.53;;;26.70;58.30;;;;;;5066807;28;20524;-66
2023/05/21 12:30:28;;;;;;;5.20;4.90;;;26.70;58.30;;;;;;5068954;28;20450;-66
2023/05/21 12:33:00;;;;;;;5.47;5.17;;;26.70;58.20;;;;;;5063034;28;20776;-66
2023/05/21 12:35:31;;;;;;;4.67;4.37;;;26.70;58.20;;;;;;5059327;28;20458;-66
2023/05/21 12:38:01;;;;;;;4.60;4.27;;;26.70;58.20;;;;;;5073977;28;20460;-66
2023/05/21 12:40:37;;;;;;;5.70;5.30;;;26.70;58.30;;;;;;5065031;28;20530;-67
2023/05/21 12:43:07;;;;;;;4.30;4.00;;;26.70;58.30;;;;;;5059468;28;20976;-66
2023/05/21 12:45:39;;;;;;;4.73;4.33;;;26.60;58.50;;;;;;5071414;28;20443;-66
2023/05/21 12:48:08;;;;;;;5.00;4.67;;;26.60;58.50;;;;;;5077340;28;20476;-67
2023/05/21 12:50:41;;;;;;;5.50;5.10;;;26.50;58.70;;;;;;5063139;28;20494;-66
2023/05/21 12:53:10;;;;;;;6.00;5.50;;;26.40;58.80;;;;;;5060571;28;20461;-69
2023/05/21 12:55:39;;;;;;;5.23;4.90;;;26.30;59.00;;;;;;5067583;28;20462;-66
2023/05/21 12:58:07;;;;;;;4.87;4.53;;;26.30;59.10;;;;;;5061705;28;20452;-66
2023/05/21 13:00:37;;;;;;;4.50;4.20;;;26.20;59.20;;;;;;5060049;28;20450;-66
2023/05/21 13:03:06;;;;;;;4.33;4.03;;;26.20;59.30;;;;;;5068335;28;20451;-66
2023/05/21 13:05:35;;;;;;;4.83;4.43;;;26.20;59.40;;;;;;5072846;28;21021;-66